Weather - Helsinki Query any day in the database

Current weather  

Weather data for a selected day (2006-01-01 -2020-10-30)
Enter date:     <-     scroll days         ->
day curves
Low temperature°C -5.107:30
High temperature°C +0.523:30
Low wind chill°C -1007:00
Average temperature°C -2.2 
High wind speed (10 min) m/s 5.004:30
Low pressurehPa 0.016:30
High pressurehPa 1025.211:30
Low R.H% 7515:00
High R.H% 10008:30
Day weather data as a table
Date Time Temp
°C
Chill
°C
Pressure
hPA
Wind
m/s
Hum
%
Precip
mm
2019-10-30 23:30:00 0.5  -1.4  1020.7 1.6 95 -
2019-10-30 23:00:00 0.0  -2.3  1021.1 1.9 89 -
2019-10-30 22:30:00 0.4  -3.3  1021.4 3.3 88 -
2019-10-30 22:00:00 0.3  -2.2  1021.6 2.1 79 -
2019-10-30 21:30:00 -0.7  -4.2  1021.9 2.8 82 -
2019-10-30 21:00:00 -1.6  -5.2  1022.2 2.8 87 -
2019-10-30 20:30:00 -1.7  -3.9  1022.6 1.6 86 -
2019-10-30 19:30:00 -2.4  -5.1  1023.4 1.9 88 -
2019-10-30 19:00:00 -2.6  -5.5  1023.8 2.0 85 -
2019-10-30 18:30:00 -2.5  -5.9  1024.0 2.4 86 -
2019-10-30 18:00:00 -2.2  -6.2  1024.0 3.0 84 -
2019-10-30 17:30:00 -1.9  -5.4  1024.2 2.6 82 -
2019-10-30 17:00:00 -2.1  -5.9  1024.4 2.9 83 -
2019-10-30 16:30:00 -1.3  -4.6  0.0 2.5 81 -
2019-10-30 16:00:00 -0.8  -4.4  1024.6 2.9 80 -
2019-10-30 15:30:00 0.0  -3.4  1024.8 2.9 76 -
2019-10-30 15:00:00 0.3  -3.3  1024.8 3.2 75 -
2019-10-30 14:30:00 0.3  -3.7  1024.8 3.7 77 -
2019-10-30 14:00:00 0.3  -3.5  1024.9 3.4 79 -
2019-10-30 13:30:00 0.3  -3.5  1024.9 3.4 80 -
2019-10-30 13:00:00 0.0  -3.8  1025.0 3.3 83 -
2019-10-30 12:30:00 -0.4  -4.3  1025.0 3.4 84 -
2019-10-30 12:00:00 -0.7  -3.9  1025.1 2.5 86 -
2019-10-30 11:30:00 -1.0  -4.4  1025.2 2.7 89 -
2019-10-30 11:00:00 -1.7  -5.8  1025.2 3.3 90 -
2019-10-30 10:30:00 -2.2  -6.3  1025.0 3.2 93 -
2019-10-30 10:00:00 -2.8  -6.7  1025.0 2.8 95 -
2019-10-30 09:30:00 -3.4  -7.5  1024.8 2.9 97 -
2019-10-30 09:00:00 -3.7  -8.4  1024.5 3.5 98 -
2019-10-30 08:30:00 -4.8  -9.4  1024.6 3.1 100 -
2019-10-30 08:00:00 -5.0  -9.0  1024.4 2.5 100 -
2019-10-30 07:30:00 -5.1  -9.5  1024.1 2.9 100 -
2019-10-30 07:00:00 -5.0  -10.0  1023.9 3.5 100 -
2019-10-30 06:30:00 -4.5  -9.6  1023.7 3.7 100 -
2019-10-30 06:00:00 -4.1  -9.9  1023.4 4.8 98 -
2019-10-30 05:30:00 -4.0  -9.5  1023.3 4.4 98 -
2019-10-30 05:00:00 -3.8  -9.5  0.0 4.7 98 -
2019-10-30 04:30:00 -3.7  -9.6  1023.0 5.0 96 -
2019-10-30 04:00:00 -3.6  -8.9  1022.8 4.2 95 -
2019-10-30 03:30:00 -3.5  -9.3  1022.5 5.0 93 -
2019-10-30 03:00:00 -3.6  -9.3  1022.4 4.8 93 -
2019-10-30 02:30:00 -3.8  -8.8  1022.3 3.8 94 -
2019-10-30 02:00:00 -3.5  -8.4  1022.1 3.8 92 -
2019-10-30 01:30:00 -3.6  -8.6  1021.9 3.8 92 -
2019-10-30 01:00:00 -3.2  -8.7  1021.6 4.6 91 -
2019-10-30 00:30:00 -3.2  -8.7  1021.4 4.7 93 -
2019-10-30 00:00:00 -3.2  -8.5  1021.4 4.3 93 -
Unit conversions: